Time;durP1;ratioP1;P1;durP2;ratioP2;P2;SDS_P1;SDS_P2;PMS_P1;PMS_P2;Temp;Humidity;BMP_temperature;BMP_pressure;BME280_temperature;BME280_humidity;BME280_pressure;Samples;Min_cycle;Max_cycle;Signal;HPM_P1;HPM_P2
2022/12/04 00:01:29;;;;;;;2.70;2.50;;;0.90;99.90;;;;;;5029212;28;20190;-89
2022/12/04 00:03:58;;;;;;;3.10;2.97;;;0.90;99.90;;;;;;5028654;28;20226;-89
2022/12/04 00:06:24;;;;;;;1.80;1.70;;;0.90;99.90;;;;;;5028531;28;20226;-87
2022/12/04 00:08:51;;;;;;;3.27;2.97;;;0.90;99.90;;;;;;5028038;28;21128;-88
2022/12/04 00:11:21;;;;;;;2.60;2.40;;;0.90;99.90;;;;;;5027646;28;20281;-88
2022/12/04 00:13:47;;;;;;;3.53;3.37;;;0.90;99.90;;;;;;5019771;28;20237;-88
2022/12/04 00:16:16;;;;;;;4.53;2.57;;;0.80;99.90;;;;;;5034912;28;20227;-89
2022/12/04 00:18:42;;;;;;;2.93;2.73;;;0.80;99.90;;;;;;5027203;28;20223;-90
2022/12/04 00:21:10;;;;;;;2.47;2.33;;;0.80;99.90;;;;;;5028616;28;20220;-88
2022/12/04 00:23:37;;;;;;;3.73;3.47;;;0.80;99.90;;;;;;5028348;28;20242;-88
2022/12/04 00:26:05;;;;;;;3.77;3.47;;;0.70;99.90;;;;;;5028543;28;20189;-87
2022/12/04 00:28:32;;;;;;;3.23;2.27;;;0.70;99.90;;;;;;5027780;28;21035;-90
2022/12/04 00:30:58;;;;;;;1.93;1.87;;;0.60;99.90;;;;;;5027051;28;20301;-88
2022/12/04 00:33:23;;;;;;;3.33;3.03;;;0.50;99.90;;;;;;5027937;28;20321;-89
2022/12/04 00:35:57;;;;;;;2.83;2.07;;;0.60;99.90;;;;;;5027740;28;20218;-92
2022/12/04 00:38:22;;;;;;;2.40;2.23;;;0.50;99.90;;;;;;5026854;28;20245;-88
2022/12/04 00:40:50;;;;;;;2.93;2.73;;;0.50;99.90;;;;;;5027449;28;20607;-89
2022/12/04 00:43:16;;;;;;;1.90;1.83;;;0.50;99.90;;;;;;5028161;28;20226;-90
2022/12/04 00:45:41;;;;;;;6.43;4.33;;;0.50;99.90;;;;;;5027513;28;20723;-89
2022/12/04 00:48:07;;;;;;;2.00;1.30;;;0.50;99.90;;;;;;5035145;28;20323;-88
2022/12/04 00:50:33;;;;;;;3.43;3.23;;;0.50;99.90;;;;;;5026198;28;21042;-89
2022/12/04 00:52:58;;;;;;;3.90;2.37;;;0.50;99.90;;;;;;5043337;28;20541;-88
2022/12/04 00:55:24;;;;;;;4.27;2.23;;;0.50;99.90;;;;;;5034034;28;20301;-88
2022/12/04 00:57:50;;;;;;;2.73;2.33;;;0.50;99.90;;;;;;5027997;28;20442;-88
2022/12/04 01:00:17;;;;;;;5.90;5.40;;;0.50;99.90;;;;;;5016362;28;20218;-88
2022/12/04 01:02:43;;;;;;;3.90;3.70;;;0.50;99.90;;;;;;5027710;28;20237;-88
2022/12/04 01:05:10;;;;;;;3.03;1.50;;;0.50;99.90;;;;;;5027505;28;20191;-88
2022/12/04 01:07:36;;;;;;;3.83;3.53;;;0.50;99.90;;;;;;5018137;28;20202;-89
2022/12/04 01:10:04;;;;;;;4.90;2.70;;;0.50;99.90;;;;;;5018185;28;20229;-88
2022/12/04 01:12:30;;;;;;;1.90;1.77;;;0.60;99.90;;;;;;5032378;28;20265;-89
2022/12/04 01:14:56;;;;;;;4.43;4.13;;;0.70;99.90;;;;;;5025579;28;20257;-90
2022/12/04 01:17:22;;;;;;;2.50;2.30;;;0.70;99.90;;;;;;5027016;28;20522;-89
2022/12/04 01:19:48;;;;;;;2.23;2.03;;;0.80;99.90;;;;;;5027716;28;20233;-88
2022/12/04 01:22:13;;;;;;;3.17;1.73;;;0.90;99.90;;;;;;5026027;28;20684;-88
2022/12/04 01:24:39;;;;;;;6.77;3.23;;;0.90;99.90;;;;;;5042740;28;20214;-89
2022/12/04 01:27:05;;;;;;;1.30;1.20;;;0.90;99.90;;;;;;5017346;28;20246;-89
2022/12/04 01:29:31;;;;;;;6.77;3.27;;;0.90;99.90;;;;;;5042250;28;20214;-87
2022/12/04 01:31:56;;;;;;;6.10;2.17;;;1.00;99.90;;;;;;5017572;28;20260;-90
2022/12/04 01:34:24;;;;;;;3.20;2.90;;;1.00;99.90;;;;;;5034217;28;20226;-88
2022/12/04 01:36:50;;;;;;;3.13;2.43;;;1.00;99.90;;;;;;5026776;28;20225;-89
2022/12/04 01:39:16;;;;;;;2.27;2.17;;;1.10;99.90;;;;;;5016611;28;20219;-90
2022/12/04 01:41:42;;;;;;;6.10;2.83;;;1.10;99.90;;;;;;5006185;28;20246;-88
2022/12/04 01:44:23;;;;;;;2.10;2.00;;;1.10;99.90;;;;;;5007315;28;20257;-89
2022/12/04 01:46:58;;;;;;;2.83;2.63;;;1.20;99.90;;;;;;5000261;28;20293;-87
2022/12/04 01:49:41;;;;;;;2.63;2.47;;;1.20;99.90;;;;;;4997903;28;20226;-89
2022/12/04 01:52:25;;;;;;;1.83;1.73;;;1.30;99.90;;;;;;5039050;28;20319;-87
2022/12/04 01:54:55;;;;;;;3.30;1.90;;;1.30;99.90;;;;;;5005844;28;21018;-90
2022/12/04 01:57:24;;;;;;;4.53;4.13;;;1.40;99.90;;;;;;5015642;28;20227;-87
2022/12/04 01:59:54;;;;;;;3.90;3.03;;;1.40;99.90;;;;;;5006869;28;20696;-87
2022/12/04 02:02:24;;;;;;;3.03;2.83;;;1.40;99.90;;;;;;5007096;28;20241;-88
2022/12/04 02:04:51;;;;;;;2.97;2.77;;;1.50;99.90;;;;;;5007343;28;20806;-87
2022/12/04 02:07:17;;;;;;;2.90;2.67;;;1.50;99.90;;;;;;5005519;28;20704;-87
2022/12/04 02:09:44;;;;;;;5.73;5.17;;;1.50;99.90;;;;;;5012814;28;20223;-88
2022/12/04 02:12:31;;;;;;;2.23;2.07;;;1.50;99.90;;;;;;5005154;28;20226;-87
2022/12/04 02:15:15;;;;;;;4.13;3.83;;;1.50;99.90;;;;;;5006161;28;21172;-90
2022/12/04 02:17:50;;;;;;;1.10;1.10;;;1.50;99.90;;;;;;5006598;28;20309;-87
2022/12/04 02:20:55;;;;;;;4.77;3.93;;;1.50;99.90;;;;;;5006220;28;20305;-89
2022/12/04 02:23:57;;;;;;;7.27;2.93;;;1.50;99.90;;;;;;5014718;28;20191;-87
2022/12/04 02:26:41;;;;;;;2.27;1.87;;;1.50;99.90;;;;;;5006765;28;20231;-89
2022/12/04 02:29:31;;;;;;;3.27;3.03;;;1.50;99.90;;;;;;5006345;28;21017;-88
2022/12/04 02:32:11;;;;;;;3.60;3.30;;;1.50;99.90;;;;;;5023379;28;20922;-89
2022/12/04 02:34:54;;;;;;;1.93;1.70;;;1.40;99.90;;;;;;5010058;28;20219;-89
2022/12/04 02:37:44;;;;;;;2.30;2.20;;;1.40;99.90;;;;;;5009859;28;20313;-88
2022/12/04 02:40:28;;;;;;;3.87;3.70;;;1.30;99.90;;;;;;5025264;28;20680;-88
2022/12/04 02:43:02;;;;;;;5.73;3.00;;;1.20;99.90;;;;;;5028191;28;20256;-90
2022/12/04 02:45:35;;;;;;;5.53;5.03;;;1.20;99.90;;;;;;5026074;28;20247;-88
2022/12/04 02:48:04;;;;;;;2.93;2.77;;;1.10;99.90;;;;;;5045855;28;20226;-88
2022/12/04 02:50:34;;;;;;;3.43;3.23;;;1.00;99.90;;;;;;5028878;28;20901;-88
2022/12/04 02:53:32;;;;;;;3.27;2.43;;;0.90;99.90;;;;;;5030294;28;20199;-88
2022/12/04 02:56:07;;;;;;;3.57;2.33;;;0.80;99.90;;;;;;5034811;28;20622;-88
2022/12/04 02:59:08;;;;;;;1.03;1.03;;;0.70;99.90;;;;;;5046387;28;20572;-88
2022/12/04 03:01:37;;;;;;;3.83;3.53;;;0.60;99.90;;;;;;5022273;28;20233;-88
2022/12/04 03:04:19;;;;;;;4.13;3.83;;;0.50;99.90;;;;;;5045225;28;20305;-90
2022/12/04 03:06:51;;;;;;;3.50;3.20;;;0.40;99.90;;;;;;5029279;28;20233;-87
2022/12/04 03:09:32;;;;;;;4.57;1.90;;;0.40;99.90;;;;;;5028579;28;20317;-88
2022/12/04 03:12:37;;;;;;;6.47;2.10;;;0.30;99.90;;;;;;5029919;28;20347;-90
2022/12/04 03:15:09;;;;;;;8.80;2.50;;;0.20;99.90;;;;;;5029233;28;20260;-88
2022/12/04 03:17:46;;;;;;;3.60;2.70;;;0.20;99.90;;;;;;5029182;28;20719;-89
2022/12/04 03:20:14;;;;;;;5.63;2.43;;;0.20;99.90;;;;;;5029821;28;20291;-87
2022/12/04 03:22:42;;;;;;;3.63;3.53;;;0.20;99.90;;;;;;5029619;28;20644;-87
2022/12/04 03:25:09;;;;;;;2.63;2.53;;;0.20;99.90;;;;;;5028651;28;20214;-87
2022/12/04 03:27:57;;;;;;;4.03;3.07;;;0.20;99.90;;;;;;5028756;28;20233;-88
2022/12/04 03:30:23;;;;;;;6.53;3.20;;;0.20;99.90;;;;;;5028889;28;20222;-91
2022/12/04 03:32:55;;;;;;;1.53;1.53;;;0.10;99.90;;;;;;5044543;28;20249;-88
2022/12/04 03:35:42;;;;;;;3.97;3.77;;;0.20;99.90;;;;;;5028974;28;20186;-90
2022/12/04 03:38:42;;;;;;;4.47;2.20;;;0.20;99.90;;;;;;5029232;28;20187;-88
2022/12/04 03:41:30;;;;;;;6.37;3.87;;;0.30;99.90;;;;;;5044412;28;20218;-89
2022/12/04 03:44:16;;;;;;;5.23;3.10;;;0.40;99.90;;;;;;5029435;28;20195;-89
2022/12/04 03:46:52;;;;;;;1.73;1.60;;;0.50;99.90;;;;;;5029571;28;20278;-87
2022/12/04 03:49:24;;;;;;;6.80;5.00;;;0.60;99.90;;;;;;5037268;28;20229;-88
2022/12/04 03:52:03;;;;;;;1.40;1.30;;;0.70;99.90;;;;;;5029581;28;20222;-87
2022/12/04 03:54:42;;;;;;;3.13;2.87;;;0.80;99.90;;;;;;5028954;28;20648;-86
2022/12/04 03:57:13;;;;;;;2.03;1.93;;;0.80;99.90;;;;;;5029082;28;20222;-90
2022/12/04 03:59:45;;;;;;;3.17;2.03;;;0.80;99.90;;;;;;5027448;28;20210;-89
2022/12/04 04:02:16;;;;;;;1.83;1.73;;;0.90;99.90;;;;;;5028471;28;20647;-88
2022/12/04 04:04:46;;;;;;;1.30;1.20;;;0.90;99.90;;;;;;5027771;28;20201;-88
2022/12/04 04:07:35;;;;;;;7.00;2.70;;;1.00;99.90;;;;;;5027390;28;21140;-92
2022/12/04 04:10:10;;;;;;;2.33;2.13;;;1.00;99.90;;;;;;5028315;28;20219;-89
2022/12/04 04:12:41;;;;;;;4.03;2.53;;;1.00;99.90;;;;;;5027672;28;20234;-89
2022/12/04 04:26:31;;;;;;;1.30;1.30;;;1.10;99.90;;;;;;5028441;28;20211;-88
2022/12/04 04:28:56;;;;;;;2.43;2.33;;;1.20;99.90;;;;;;5029053;28;20193;-88
2022/12/04 04:31:52;;;;;;;4.70;4.07;;;1.20;99.90;;;;;;5026937;28;20538;-89
2022/12/04 04:34:26;;;;;;;7.40;3.87;;;1.20;99.90;;;;;;5027000;28;20364;-88
2022/12/04 04:37:06;;;;;;;4.53;2.40;;;1.20;99.90;;;;;;5036735;28;20245;-89
2022/12/04 04:39:48;;;;;;;3.30;3.00;;;1.20;99.90;;;;;;5027464;28;20242;-88
2022/12/04 04:42:16;;;;;;;2.00;1.90;;;1.10;99.90;;;;;;5027628;28;20237;-90
2022/12/04 04:45:00;;;;;;;2.13;1.63;;;1.10;99.90;;;;;;5027972;28;20222;-88
2022/12/04 04:47:35;;;;;;;6.33;3.90;;;1.10;99.90;;;;;;5042369;28;20238;-87
2022/12/04 04:50:03;;;;;;;3.47;3.17;;;1.10;99.90;;;;;;5043724;28;20956;-90
2022/12/04 04:52:30;;;;;;;3.33;3.23;;;1.10;99.90;;;;;;5028152;28;20280;-88
2022/12/04 04:54:58;;;;;;;3.97;2.57;;;1.10;99.90;;;;;;5025958;28;20710;-87
2022/12/04 04:57:29;;;;;;;4.77;4.07;;;1.00;99.90;;;;;;5025953;28;20230;-89
2022/12/04 04:59:55;;;;;;;4.57;2.10;;;1.00;99.90;;;;;;5043241;28;20580;-88
2022/12/04 05:02:20;;;;;;;1.67;1.57;;;1.00;99.90;;;;;;5026262;28;20198;-88
2022/12/04 05:04:46;;;;;;;5.93;4.37;;;1.00;99.90;;;;;;5010855;28;20191;-88
2022/12/04 05:07:12;;;;;;;6.20;3.67;;;1.00;99.90;;;;;;5034844;28;20218;-89
2022/12/04 05:09:37;;;;;;;5.23;3.97;;;1.00;99.90;;;;;;5011921;28;20219;-90
2022/12/04 05:12:03;;;;;;;1.00;0.97;;;1.00;99.90;;;;;;5026302;28;20230;-88
2022/12/04 05:14:29;;;;;;;4.57;3.53;;;1.00;99.90;;;;;;5027392;28;20261;-87
2022/12/04 05:16:54;;;;;;;3.80;3.07;;;1.00;99.90;;;;;;5019238;28;20191;-87
2022/12/04 05:22:04;;;;;;;3.37;3.10;;;1.00;99.90;;;;;;5040089;28;21228;-88
2022/12/04 05:24:30;;;;;;;3.33;3.10;;;1.00;99.90;;;;;;5025884;28;20246;-88
2022/12/04 05:26:56;;;;;;;1.97;1.87;;;1.00;99.90;;;;;;5026466;28;20246;-90
2022/12/04 05:29:21;;;;;;;5.37;2.37;;;1.00;99.90;;;;;;5002761;28;22044;-87
2022/12/04 05:31:47;;;;;;;2.80;2.60;;;1.00;99.90;;;;;;5026757;28;20229;-88
2022/12/04 05:34:13;;;;;;;3.07;2.87;;;1.00;99.90;;;;;;5027088;28;20246;-88
2022/12/04 05:36:38;;;;;;;1.47;1.47;;;1.00;99.90;;;;;;5042726;28;20261;-87
2022/12/04 05:39:04;;;;;;;3.10;2.13;;;1.00;99.90;;;;;;5026102;28;20222;-90
2022/12/04 05:41:30;;;;;;;4.03;3.90;;;1.00;99.90;;;;;;5042463;28;20280;-88
2022/12/04 05:43:55;;;;;;;3.30;3.00;;;1.00;99.90;;;;;;5026429;28;21033;-88
2022/12/04 05:46:21;;;;;;;1.80;1.73;;;1.00;99.90;;;;;;4999986;28;20246;-87
2022/12/04 05:48:47;;;;;;;3.63;3.43;;;1.00;99.90;;;;;;5016030;28;20230;-87
2022/12/04 05:51:12;;;;;;;3.53;3.23;;;1.00;99.90;;;;;;5033045;28;20273;-86
2022/12/04 05:53:38;;;;;;;5.57;3.90;;;1.00;99.90;;;;;;5041576;28;20289;-91
2022/12/04 05:56:06;;;;;;;1.50;1.47;;;1.00;99.90;;;;;;5024821;28;20186;-89
2022/12/04 05:58:34;;;;;;;6.23;3.23;;;1.00;99.90;;;;;;5025442;28;20194;-88
2022/12/04 06:01:17;;;;;;;2.07;1.97;;;1.00;99.90;;;;;;5026263;28;20218;-88
2022/12/04 06:03:43;;;;;;;3.53;3.27;;;1.00;99.90;;;;;;5025263;28;20241;-88
2022/12/04 06:06:12;;;;;;;5.43;3.20;;;1.00;99.90;;;;;;5018412;28;20684;-86
2022/12/04 06:08:38;;;;;;;3.30;3.07;;;1.10;99.90;;;;;;5035756;28;20305;-85
2022/12/04 06:11:13;;;;;;;3.80;3.50;;;1.10;99.90;;;;;;5046037;28;20356;-87
2022/12/04 06:13:43;;;;;;;5.17;3.30;;;1.10;99.90;;;;;;5046146;28;20213;-89
2022/12/04 06:16:20;;;;;;;1.53;1.40;;;1.10;99.90;;;;;;5029029;28;20236;-90
2022/12/04 06:18:54;;;;;;;6.63;5.27;;;1.10;99.90;;;;;;5029826;28;20221;-88
2022/12/04 06:21:22;;;;;;;6.93;4.33;;;1.10;99.90;;;;;;5030092;28;20220;-90
2022/12/04 06:23:48;;;;;;;3.67;3.37;;;1.10;99.90;;;;;;5046347;28;20571;-86
2022/12/04 06:26:14;;;;;;;2.73;2.57;;;1.10;99.90;;;;;;5020199;28;20206;-86
2022/12/04 06:28:40;;;;;;;2.90;2.77;;;1.10;99.90;;;;;;5029917;28;20186;-86
2022/12/04 06:31:08;;;;;;;5.30;4.07;;;1.10;99.90;;;;;;5029219;28;20215;-86
2022/12/04 06:33:34;;;;;;;4.27;1.20;;;1.10;99.90;;;;;;5045106;28;20260;-89
2022/12/04 06:36:06;;;;;;;1.63;1.63;;;1.10;99.90;;;;;;5030308;28;20228;-87
2022/12/04 06:38:32;;;;;;;2.90;2.43;;;1.10;99.90;;;;;;5028679;28;20226;-91
2022/12/04 06:40:58;;;;;;;3.30;3.10;;;1.10;99.90;;;;;;5031020;28;20197;-90
2022/12/04 06:43:24;;;;;;;4.90;3.80;;;1.10;99.90;;;;;;5021311;28;20229;-88
2022/12/04 06:46:09;;;;;;;6.53;3.80;;;1.10;99.90;;;;;;5028884;28;20322;-89
2022/12/04 06:48:35;;;;;;;10.63;5.23;;;1.10;99.90;;;;;;5030313;28;20237;-88
2022/12/04 06:51:06;;;;;;;8.77;2.83;;;1.10;99.90;;;;;;5038186;28;20222;-88
2022/12/04 06:53:32;;;;;;;4.43;4.13;;;1.10;99.90;;;;;;5028854;28;20222;-88
2022/12/04 06:56:05;;;;;;;3.53;3.33;;;1.10;99.90;;;;;;5030292;28;20556;-87
2022/12/04 06:58:31;;;;;;;6.60;2.27;;;1.10;99.90;;;;;;5029063;28;20793;-87
2022/12/04 07:00:56;;;;;;;2.00;1.90;;;1.10;99.90;;;;;;5035976;28;20222;-89
2022/12/04 07:03:24;;;;;;;1.27;1.20;;;1.10;99.90;;;;;;5045205;28;20229;-89
2022/12/04 07:05:50;;;;;;;10.10;4.77;;;1.20;99.90;;;;;;5037466;28;20229;-86
2022/12/04 07:08:17;;;;;;;5.03;2.73;;;1.20;99.90;;;;;;5029688;28;20190;-86
2022/12/04 07:10:43;;;;;;;5.47;2.33;;;1.20;99.90;;;;;;5020626;28;20905;-88
2022/12/04 07:13:10;;;;;;;3.50;1.37;;;1.20;99.90;;;;;;5029401;28;20241;-87
2022/12/04 07:15:37;;;;;;;3.10;2.97;;;1.20;99.90;;;;;;5044646;28;20380;-88
2022/12/04 07:18:03;;;;;;;14.43;3.73;;;1.20;99.90;;;;;;5019707;28;20211;-85
2022/12/04 07:20:29;;;;;;;6.13;3.17;;;1.30;99.90;;;;;;5044663;28;20230;-86
2022/12/04 07:22:55;;;;;;;4.53;4.23;;;1.30;99.90;;;;;;5029046;28;20210;-87
2022/12/04 07:25:21;;;;;;;5.50;4.60;;;1.30;99.90;;;;;;5044267;28;20260;-86
2022/12/04 07:27:47;;;;;;;3.73;3.47;;;1.40;99.90;;;;;;5027938;28;20218;-88
2022/12/04 07:30:13;;;;;;;7.37;6.10;;;1.40;99.90;;;;;;5036922;28;20224;-86
2022/12/04 07:32:40;;;;;;;2.90;2.70;;;1.40;99.90;;;;;;5026897;28;20222;-87
2022/12/04 07:35:06;;;;;;;4.77;4.10;;;1.40;99.90;;;;;;5028423;28;20179;-86
2022/12/04 07:37:34;;;;;;;2.83;2.73;;;1.50;99.90;;;;;;5027929;28;20221;-85
2022/12/04 07:40:00;;;;;;;4.77;4.43;;;1.50;99.90;;;;;;5028501;28;20268;-88
2022/12/04 07:42:27;;;;;;;5.20;4.80;;;1.50;99.90;;;;;;5028608;28;20238;-87
2022/12/04 07:44:53;;;;;;;7.47;5.53;;;1.50;99.90;;;;;;5003943;28;20230;-86
2022/12/04 07:47:18;;;;;;;2.77;2.67;;;1.60;99.90;;;;;;5034498;28;20226;-87
2022/12/04 07:49:44;;;;;;;4.00;3.87;;;1.60;99.90;;;;;;5028730;28;20269;-87
2022/12/04 07:52:10;;;;;;;3.47;3.23;;;1.60;99.90;;;;;;5037118;28;20569;-88
2022/12/04 07:54:36;;;;;;;2.70;2.50;;;1.60;99.90;;;;;;5043260;28;20214;-87
2022/12/04 07:57:01;;;;;;;8.23;5.07;;;1.60;99.90;;;;;;5041619;28;20217;-87
2022/12/04 07:59:27;;;;;;;4.27;4.00;;;1.70;99.90;;;;;;5025649;28;20214;-87
2022/12/04 08:01:53;;;;;;;3.43;3.00;;;1.70;99.90;;;;;;5026498;28;20198;-88
2022/12/04 08:04:19;;;;;;;3.23;1.97;;;1.70;99.90;;;;;;5033650;28;21016;-87
2022/12/04 08:06:44;;;;;;;3.83;3.53;;;1.70;99.90;;;;;;5014229;28;20223;-87
2022/12/04 08:09:10;;;;;;;4.10;3.80;;;1.70;99.90;;;;;;5019838;28;20293;-88
2022/12/04 08:11:36;;;;;;;2.63;2.43;;;1.70;99.90;;;;;;5024409;28;20578;-88
2022/12/04 08:14:04;;;;;;;3.57;3.37;;;1.80;99.90;;;;;;5040889;28;20219;-88
2022/12/04 08:16:31;;;;;;;5.40;3.63;;;1.80;99.90;;;;;;5026536;28;20214;-87
2022/12/04 08:18:57;;;;;;;3.57;3.30;;;1.80;99.90;;;;;;5037988;28;20215;-87
2022/12/04 08:21:25;;;;;;;18.77;4.33;;;1.80;99.90;;;;;;5022421;28;20280;-90
2022/12/04 08:23:52;;;;;;;2.50;2.27;;;1.80;99.90;;;;;;5022547;28;20234;-89
2022/12/04 08:26:20;;;;;;;3.10;2.93;;;1.90;99.90;;;;;;5022036;28;20236;-90
2022/12/04 08:28:46;;;;;;;2.70;1.87;;;1.90;99.90;;;;;;5024496;28;20454;-86
2022/12/04 08:31:16;;;;;;;3.33;2.10;;;2.00;99.90;;;;;;5026647;28;20222;-88
2022/12/04 08:33:43;;;;;;;3.93;3.13;;;2.00;99.90;;;;;;5026348;28;20325;-90
2022/12/04 08:36:10;;;;;;;3.43;3.13;;;2.00;99.90;;;;;;5026812;28;20238;-91
2022/12/04 08:38:36;;;;;;;3.43;1.73;;;2.10;99.90;;;;;;5027813;28;20568;-87
2022/12/04 08:41:04;;;;;;;4.43;3.00;;;2.10;99.90;;;;;;5028210;28;20699;-82
2022/12/04 08:43:30;;;;;;;3.37;3.13;;;2.10;99.90;;;;;;5027068;28;20187;-86
2022/12/04 08:46:02;;;;;;;5.33;4.83;;;2.10;99.90;;;;;;5025843;28;20241;-87
2022/12/04 08:48:29;;;;;;;2.90;2.60;;;2.10;99.90;;;;;;5026864;28;20234;-88
2022/12/04 08:50:55;;;;;;;2.47;2.27;;;2.10;99.90;;;;;;5043985;28;20214;-87
2022/12/04 08:53:21;;;;;;;4.13;2.00;;;2.20;99.90;;;;;;5039166;28;20230;-88
2022/12/04 08:55:47;;;;;;;3.03;2.73;;;2.20;99.90;;;;;;5025333;28;20811;-88
2022/12/04 08:58:12;;;;;;;2.40;2.20;;;2.20;99.90;;;;;;5026322;28;20298;-85
2022/12/04 09:00:38;;;;;;;2.73;2.50;;;2.20;99.90;;;;;;5040399;28;20251;-86
2022/12/04 09:03:04;;;;;;;2.47;2.37;;;2.20;99.90;;;;;;5026240;28;20222;-89
2022/12/04 09:05:30;;;;;;;2.97;2.77;;;2.20;99.90;;;;;;5029148;28;20226;-88
2022/12/04 09:07:56;;;;;;;3.47;3.17;;;2.20;99.90;;;;;;5029483;28;20652;-90
2022/12/04 09:10:22;;;;;;;4.53;3.10;;;2.30;99.90;;;;;;5024713;28;20214;-88
2022/12/04 09:12:48;;;;;;;5.47;4.33;;;2.30;99.90;;;;;;5024377;28;20777;-88
2022/12/04 09:15:13;;;;;;;4.33;3.93;;;2.30;99.90;;;;;;5040382;28;20222;-88
2022/12/04 09:17:39;;;;;;;3.53;3.30;;;2.30;99.90;;;;;;5023525;28;20732;-90
2022/12/04 09:20:06;;;;;;;5.93;5.20;;;2.30;99.90;;;;;;5024108;28;20780;-90
2022/12/04 09:22:34;;;;;;;4.17;3.10;;;2.30;99.90;;;;;;5023328;28;20722;-89
2022/12/04 09:25:00;;;;;;;3.17;2.97;;;2.30;99.90;;;;;;5024203;28;20242;-91
2022/12/04 09:27:26;;;;;;;1.37;1.37;;;2.30;99.90;;;;;;5023772;28;20218;-93
2022/12/04 09:29:52;;;;;;;4.87;4.40;;;2.30;99.90;;;;;;5024365;28;20218;-88
2022/12/04 09:32:18;;;;;;;2.97;2.80;;;2.40;99.90;;;;;;5039304;28;20201;-89
2022/12/04 09:34:46;;;;;;;3.10;2.87;;;2.40;99.90;;;;;;5024017;28;20526;-90
2022/12/04 09:37:12;;;;;;;5.07;2.03;;;2.30;99.90;;;;;;5039769;28;20218;-90
2022/12/04 09:39:38;;;;;;;5.17;4.53;;;2.40;99.90;;;;;;5024329;28;20240;-88
2022/12/04 09:42:21;;;;;;;3.00;2.90;;;2.40;99.90;;;;;;5017264;28;20290;-93
2022/12/04 09:45:02;;;;;;;3.63;2.30;;;2.40;99.90;;;;;;5026399;28;20268;-92
2022/12/04 09:47:34;;;;;;;2.80;2.70;;;2.50;99.90;;;;;;5026030;28;20288;-91
2022/12/04 09:50:13;;;;;;;8.40;3.47;;;2.50;99.90;;;;;;5043587;28;20181;-92
2022/12/04 09:53:00;;;;;;;4.80;3.27;;;2.50;99.90;;;;;;5027218;28;20302;-90
2022/12/04 09:55:34;;;;;;;6.60;2.47;;;2.60;99.90;;;;;;5025728;28;20277;-91
2022/12/04 09:58:03;;;;;;;2.53;2.40;;;2.60;99.90;;;;;;5028560;28;20399;-93
2022/12/04 10:00:32;;;;;;;3.60;2.30;;;2.60;99.90;;;;;;5018301;28;20223;-91
2022/12/04 10:03:02;;;;;;;4.23;3.87;;;2.60;99.90;;;;;;5027486;28;20222;-91
2022/12/04 10:05:43;;;;;;;2.13;1.80;;;2.70;99.90;;;;;;5027365;28;20221;-92
2022/12/04 10:08:17;;;;;;;7.70;3.53;;;2.70;99.90;;;;;;5017090;28;20757;-92
2022/12/04 10:11:24;;;;;;;6.33;3.00;;;2.70;99.90;;;;;;5027148;28;20280;-93
2022/12/04 10:14:09;;;;;;;3.63;3.27;;;2.80;99.90;;;;;;5021588;28;20594;-92
2022/12/04 10:16:45;;;;;;;3.07;2.80;;;2.80;99.90;;;;;;5027260;28;20218;-92
2022/12/04 10:19:29;;;;;;;3.17;2.83;;;2.80;99.90;;;;;;5042190;28;20210;-92
2022/12/04 10:22:36;;;;;;;4.63;4.33;;;2.80;99.90;;;;;;5041935;28;20229;-92
2022/12/04 10:25:08;;;;;;;4.43;2.73;;;2.90;99.90;;;;;;5025768;28;20228;-90
2022/12/04 10:27:43;;;;;;;3.13;2.83;;;2.90;99.90;;;;;;5025648;28;20238;-92
2022/12/04 10:30:24;;;;;;;3.87;3.53;;;3.00;99.90;;;;;;5026190;28;20590;-90
2022/12/04 10:32:58;;;;;;;3.33;2.10;;;3.00;99.90;;;;;;5042525;28;20974;-89
2022/12/04 10:35:30;;;;;;;2.17;2.07;;;3.00;99.90;;;;;;5029927;28;20209;-92
2022/12/04 10:38:28;;;;;;;3.53;3.20;;;3.10;99.90;;;;;;5046399;28;20191;-90
2022/12/04 10:41:03;;;;;;;1.40;1.40;;;3.20;99.90;;;;;;5031291;28;20717;-92
2022/12/04 10:43:48;;;;;;;3.40;2.53;;;3.20;99.90;;;;;;5030375;28;20210;-91
2022/12/04 10:46:20;;;;;;;7.07;6.60;;;3.20;99.90;;;;;;5028672;28;20245;-91
2022/12/04 10:48:47;;;;;;;4.17;3.77;;;3.30;99.90;;;;;;5031660;28;20248;-91
2022/12/04 10:51:15;;;;;;;6.93;3.77;;;3.30;99.90;;;;;;5027479;28;20677;-93
2022/12/04 10:53:43;;;;;;;4.07;3.27;;;3.30;99.90;;;;;;5032414;28;20241;-92
2022/12/04 10:56:17;;;;;;;1.80;1.63;;;3.40;99.90;;;;;;5050668;28;20277;-91
2022/12/04 10:58:59;;;;;;;3.57;3.20;;;3.40;99.90;;;;;;5038488;28;20189;-91
2022/12/04 11:01:27;;;;;;;3.13;2.93;;;3.40;99.90;;;;;;5042520;28;20222;-94
2022/12/04 11:04:04;;;;;;;5.63;2.20;;;3.30;99.90;;;;;;5063001;28;20594;-91
2022/12/04 11:06:31;;;;;;;3.67;3.37;;;3.30;99.90;;;;;;5031770;28;20214;-92
2022/12/04 11:08:58;;;;;;;3.20;2.03;;;3.30;99.90;;;;;;5032371;28;20222;-91
2022/12/04 11:11:32;;;;;;;3.20;2.97;;;3.30;99.90;;;;;;5031522;28;20218;-90
2022/12/04 11:14:13;;;;;;;2.17;2.00;;;3.40;99.90;;;;;;5031276;28;20730;-92
2022/12/04 11:16:43;;;;;;;3.30;2.73;;;3.40;99.90;;;;;;5031944;28;20944;-91
2022/12/04 11:19:44;;;;;;;8.57;3.40;;;3.40;99.90;;;;;;5031902;28;20224;-91
2022/12/04 11:22:16;;;;;;;3.73;3.50;;;3.40;99.90;;;;;;4999318;28;20282;-90
2022/12/04 11:24:49;;;;;;;3.13;2.90;;;3.40;99.90;;;;;;5025193;28;20304;-91
2022/12/04 11:27:34;;;;;;;4.00;2.17;;;3.50;99.90;;;;;;5030065;28;20227;-92
2022/12/04 11:30:09;;;;;;;2.37;1.93;;;3.40;99.90;;;;;;5029969;28;20218;-89
2022/12/04 11:32:35;;;;;;;1.30;1.27;;;3.40;99.90;;;;;;5029176;28;20346;-89
2022/12/04 11:35:14;;;;;;;4.03;1.60;;;3.40;99.90;;;;;;5038198;28;20190;-88
2022/12/04 11:37:40;;;;;;;2.50;2.30;;;3.50;99.90;;;;;;5031345;28;20210;-88
2022/12/04 11:40:15;;;;;;;3.07;1.90;;;3.40;99.90;;;;;;5035968;28;20221;-88
2022/12/04 11:42:41;;;;;;;2.50;2.30;;;3.40;99.90;;;;;;5030223;28;21052;-90
2022/12/04 11:45:21;;;;;;;1.67;1.57;;;3.40;99.90;;;;;;5030489;28;20294;-88
2022/12/04 11:47:56;;;;;;;3.00;2.70;;;3.40;99.90;;;;;;5026050;28;20321;-89
2022/12/04 11:50:33;;;;;;;9.80;1.97;;;3.40;99.90;;;;;;5036556;28;20187;-88
2022/12/04 11:53:25;;;;;;;2.70;2.27;;;3.40;99.90;;;;;;5030846;28;20214;-91
2022/12/04 11:56:21;;;;;;;1.90;1.40;;;3.40;99.90;;;;;;5029014;28;21064;-91
2022/12/04 11:59:14;;;;;;;1.87;1.77;;;3.30;99.90;;;;;;5029840;28;20431;-88
2022/12/04 12:02:03;;;;;;;1.90;1.63;;;3.30;99.90;;;;;;5030545;28;20210;-89
2022/12/04 12:04:59;;;;;;;1.77;1.63;;;3.30;99.90;;;;;;5028841;28;20221;-90
2022/12/04 12:07:39;;;;;;;2.27;1.37;;;3.40;99.90;;;;;;5038445;28;20231;-89
2022/12/04 12:10:30;;;;;;;1.27;1.27;;;3.30;99.90;;;;;;5028567;28;20214;-88
2022/12/04 12:13:23;;;;;;;4.27;4.07;;;3.30;99.90;;;;;;5026946;28;20767;-90
2022/12/04 12:15:58;;;;;;;0.77;0.73;;;3.30;99.90;;;;;;5029030;28;20222;-89
2022/12/04 12:18:42;;;;;;;3.60;2.90;;;3.30;99.90;;;;;;5043818;28;20266;-89
2022/12/04 12:21:44;;;;;;;1.27;1.27;;;3.30;99.90;;;;;;5027404;28;20296;-89
2022/12/04 12:24:24;;;;;;;2.60;2.40;;;3.30;99.90;;;;;;5015807;28;20214;-88
2022/12/04 12:27:17;;;;;;;2.77;2.30;;;3.30;99.90;;;;;;5028417;28;20214;-89
2022/12/04 12:30:17;;;;;;;3.33;3.03;;;3.30;99.90;;;;;;5027674;28;20222;-90
2022/12/04 12:33:18;;;;;;;4.77;1.90;;;3.30;99.90;;;;;;5024568;28;20229;-90
2022/12/04 12:36:10;;;;;;;2.70;2.50;;;3.30;99.90;;;;;;5019128;28;20396;-91
2022/12/04 12:39:08;;;;;;;2.57;1.93;;;3.30;99.90;;;;;;5025915;28;20551;-89
2022/12/04 12:41:50;;;;;;;1.83;1.73;;;3.30;99.90;;;;;;5027271;28;20218;-90
2022/12/04 12:44:22;;;;;;;2.93;2.40;;;3.30;99.90;;;;;;5027862;28;20237;-90
2022/12/04 12:46:55;;;;;;;1.87;1.77;;;3.30;99.90;;;;;;5042767;28;20329;-90
2022/12/04 12:49:30;;;;;;;2.63;0.90;;;3.30;99.90;;;;;;5043054;28;20232;-90
2022/12/04 12:51:59;;;;;;;3.50;2.27;;;3.30;99.90;;;;;;5027084;28;20600;-90
2022/12/04 12:54:47;;;;;;;2.20;1.70;;;3.30;99.90;;;;;;5027488;28;20357;-90
2022/12/04 12:57:33;;;;;;;3.13;2.90;;;3.30;99.90;;;;;;5028160;28;20214;-89
2022/12/04 13:00:23;;;;;;;6.33;3.10;;;3.30;99.90;;;;;;5028714;28;20242;-90
2022/12/04 13:03:04;;;;;;;2.17;1.97;;;3.30;99.90;;;;;;5027040;28;20253;-89
2022/12/04 13:05:39;;;;;;;3.27;1.93;;;3.30;99.90;;;;;;5027751;28;20225;-89
2022/12/04 13:08:15;;;;;;;7.27;2.73;;;3.30;99.90;;;;;;5027224;28;20205;-90
2022/12/04 13:11:13;;;;;;;2.13;1.60;;;3.30;99.90;;;;;;5028940;28;20198;-90
2022/12/04 13:13:51;;;;;;;5.13;4.77;;;3.30;99.90;;;;;;5027937;28;20234;-88
2022/12/04 13:16:25;;;;;;;1.00;1.00;;;3.30;99.90;;;;;;5045402;28;20467;-92
2022/12/04 13:19:03;;;;;;;2.40;2.20;;;3.30;99.90;;;;;;5028383;28;20215;-89
2022/12/04 13:21:34;;;;;;;3.23;2.90;;;3.40;99.90;;;;;;5026941;28;20314;-91
2022/12/04 13:24:03;;;;;;;5.03;1.87;;;3.40;99.90;;;;;;5043702;28;20223;-88
2022/12/04 13:27:02;;;;;;;2.63;2.53;;;3.30;99.90;;;;;;5028934;28;20223;-90
2022/12/04 13:29:53;;;;;;;4.77;2.57;;;3.40;99.90;;;;;;5019629;28;20285;-88
2022/12/04 13:32:27;;;;;;;3.40;3.10;;;3.40;99.90;;;;;;5035608;28;20194;-93
2022/12/04 13:35:37;;;;;;;2.47;2.27;;;3.40;99.90;;;;;;5028590;28;20186;-89
2022/12/04 13:38:31;;;;;;;1.70;1.70;;;3.40;99.90;;;;;;5043611;28;20218;-87
2022/12/04 13:41:04;;;;;;;4.63;2.37;;;3.40;99.90;;;;;;5027849;28;20214;-87
2022/12/04 13:43:41;;;;;;;3.03;2.03;;;3.50;99.90;;;;;;5029092;28;20272;-89